createdAt,value
2018-12-24T00:02:08.183Z,107.70
2018-12-24T00:05:04.491Z,111.97
2018-12-24T00:08:01.143Z,112.23
2018-12-24T00:10:57.361Z,111.73
2018-12-24T00:13:53.480Z,108.40
2018-12-24T00:16:49.940Z,112.40
2018-12-24T00:19:46.685Z,113.53
2018-12-24T00:22:46.096Z,107.00
2018-12-24T00:25:42.207Z,111.93
2018-12-24T00:28:41.614Z,107.63
2018-12-24T00:31:38.056Z,105.60
2018-12-24T00:34:34.503Z,104.73
2018-12-24T00:37:30.936Z,98.53
2018-12-24T00:40:28.398Z,96.57
2018-12-24T00:43:24.729Z,97.47
2018-12-24T00:46:20.769Z,92.60
2018-12-24T00:49:16.967Z,92.20
2018-12-24T00:52:13.722Z,88.40
2018-12-24T00:55:09.954Z,89.37
2018-12-24T00:58:05.972Z,92.30
2018-12-24T01:01:02.736Z,89.17
2018-12-24T01:03:59.771Z,91.77
2018-12-24T01:06:55.508Z,97.37
2018-12-24T01:09:51.023Z,100.93
2018-12-24T01:12:47.343Z,100.97
2018-12-24T01:15:43.897Z,97.20
2018-12-24T01:18:41.609Z,100.40
2018-12-24T01:21:56.226Z,97.63
2018-12-24T01:25:01.654Z,104.70
2018-12-24T01:27:48.383Z,103.27
2018-12-24T01:30:44.102Z,102.47
2018-12-24T01:33:40.142Z,103.67
2018-12-24T01:36:36.462Z,104.27
2018-12-24T01:39:32.585Z,99.23
2018-12-24T01:42:33.546Z,101.53
2018-12-24T01:45:30.684Z,98.77
2018-12-24T01:48:27.937Z,98.00
2018-12-24T01:51:24.573Z,104.70
2018-12-24T01:54:20.139Z,101.40
2018-12-24T01:57:21.197Z,100.63
2018-12-24T02:00:17.548Z,98.63
2018-12-24T02:03:15.579Z,95.33
2018-12-24T02:06:11.438Z,95.17
2018-12-24T02:09:08.913Z,92.37
2018-12-24T02:12:06.315Z,91.73
2018-12-24T02:15:05.469Z,92.67
2018-12-24T02:18:01.187Z,92.33
2018-12-24T02:20:57.625Z,89.27
2018-12-24T02:23:53.749Z,93.47
2018-12-24T02:26:49.990Z,95.80
2018-12-24T02:29:52.164Z,98.87
2018-12-24T02:32:54.145Z,108.60
2018-12-24T02:35:50.254Z,105.83
2018-12-24T02:38:53.129Z,102.80
2018-12-24T02:41:52.252Z,102.57
2018-12-24T02:44:45.303Z,98.80
2018-12-24T02:47:43.361Z,95.40
2018-12-24T02:50:57.326Z,94.50
2018-12-24T02:53:53.690Z,87.03
2018-12-24T02:56:50.094Z,87.53
2018-12-24T02:59:45.920Z,80.57
2018-12-24T03:02:42.186Z,75.78
2018-12-24T03:05:38.157Z,79.70
2018-12-24T03:08:34.288Z,72.43
2018-12-24T03:11:30.563Z,67.17
2018-12-24T03:14:27.822Z,63.27
2018-12-24T03:17:24.044Z,64.60
2018-12-24T03:20:20.522Z,65.77
2018-12-24T03:23:16.360Z,65.70
2018-12-24T03:26:13.137Z,74.10
2018-12-24T03:29:09.865Z,65.43
2018-12-24T03:32:06.042Z,76.10
2018-12-24T03:35:02.418Z,81.63
2018-12-24T03:37:59.646Z,55.43
2018-12-24T03:40:55.901Z,55.33
2018-12-24T03:43:51.628Z,51.47
2018-12-24T03:46:47.599Z,49.50
2018-12-24T03:49:44.352Z,47.63
2018-12-24T03:52:42.871Z,49.53
2018-12-24T03:55:40.063Z,48.07
2018-12-24T03:58:37.292Z,49.97
2018-12-24T04:01:52.361Z,52.48
2018-12-24T04:04:48.826Z,53.50
2018-12-24T04:07:45.459Z,55.50
2018-12-24T04:10:41.479Z,61.68
2018-12-24T04:13:37.809Z,68.60
2018-12-24T04:16:34.321Z,65.60
2018-12-24T04:19:30.398Z,63.10
2018-12-24T04:22:26.730Z,59.35
2018-12-24T04:25:22.671Z,57.50
2018-12-24T04:28:23.868Z,58.78
2018-12-24T04:31:19.686Z,60.85
2018-12-24T04:34:15.904Z,59.23
2018-12-24T04:37:12.735Z,59.77
2018-12-24T04:40:09.270Z,65.78
2018-12-24T04:43:05.613Z,60.53
2018-12-24T04:46:01.656Z,58.98
2018-12-24T04:48:57.985Z,58.85
2018-12-24T04:51:54.622Z,59.35
2018-12-24T04:54:50.713Z,58.87
2018-12-24T04:57:47.016Z,59.90
2018-12-24T05:00:46.570Z,58.50
2018-12-24T05:07:15.144Z,58.08
2018-12-24T05:10:11.449Z,56.45
2018-12-24T05:13:09.871Z,55.40
2018-12-24T05:16:14.779Z,57.03
2018-12-24T05:19:07.900Z,56.73
2018-12-24T05:22:03.675Z,56.33
2018-12-24T05:24:59.218Z,59.10
2018-12-24T05:27:55.382Z,54.10
2018-12-24T05:30:52.890Z,51.15
2018-12-24T05:33:48.914Z,50.08
2018-12-24T05:36:45.621Z,48.98
2018-12-24T05:39:41.670Z,49.80
2018-12-24T05:42:40.968Z,50.63
2018-12-24T05:45:37.320Z,48.00
2018-12-24T05:48:33.619Z,52.35
2018-12-24T05:51:30.078Z,49.60
2018-12-24T05:54:26.970Z,47.35
2018-12-24T05:57:27.096Z,42.67
2018-12-24T06:00:32.658Z,38.35
2018-12-24T06:03:41.197Z,43.33
2018-12-24T06:06:37.130Z,35.95
2018-12-24T06:09:42.468Z,36.63
2018-12-24T06:12:53.542Z,36.45
2018-12-24T06:15:49.205Z,35.30
2018-12-24T06:18:46.429Z,39.08
2018-12-24T06:21:43.554Z,34.65
2018-12-24T06:24:55.800Z,39.88
2018-12-24T06:27:54.639Z,39.18
2018-12-24T06:30:55.264Z,35.88
2018-12-24T06:33:58.011Z,34.65
2018-12-24T06:36:54.064Z,36.45
2018-12-24T06:43:15.037Z,37.80
2018-12-24T06:46:12.853Z,32.35
2018-12-24T06:49:10.025Z,36.10
2018-12-24T06:52:12.727Z,35.80
2018-12-24T06:58:58.812Z,37.98
2018-12-24T07:02:27.897Z,35.52
2018-12-24T07:05:28.901Z,34.50
2018-12-24T07:08:29.322Z,33.83
2018-12-24T07:11:30.218Z,34.18
2018-12-24T07:14:30.977Z,32.10
2018-12-24T07:17:27.584Z,31.95
2018-12-24T07:20:25.226Z,34.45
2018-12-24T07:23:21.817Z,34.10
2018-12-24T07:26:23.042Z,34.25
2018-12-24T07:29:19.276Z,34.67
2018-12-24T07:32:15.749Z,35.17
2018-12-24T07:35:11.855Z,32.93
2018-12-24T07:38:08.511Z,31.17
2018-12-24T07:41:04.626Z,32.13
2018-12-24T07:44:02.926Z,32.23
2018-12-24T07:46:59.537Z,34.03
2018-12-24T07:49:57.241Z,33.42
2018-12-24T07:52:54.219Z,34.20
2018-12-24T07:55:52.542Z,33.80
2018-12-24T07:58:48.829Z,34.63
2018-12-24T08:01:44.799Z,34.27
2018-12-24T08:04:40.712Z,34.70
2018-12-24T08:07:46.510Z,33.90
2018-12-24T08:11:04.514Z,35.43
2018-12-24T08:14:09.245Z,33.38
2018-12-24T08:17:32.782Z,33.55
2018-12-24T08:20:32.376Z,32.38
2018-12-24T08:23:29.562Z,35.03
2018-12-24T08:26:31.972Z,39.75
2018-12-24T08:29:31.200Z,34.95
2018-12-24T08:32:35.027Z,35.58
2018-12-24T08:35:33.181Z,34.60
2018-12-24T08:38:29.447Z,34.88
2018-12-24T08:41:28.524Z,31.68
2018-12-24T08:44:53.165Z,32.55
2018-12-24T08:51:38.912Z,30.82
2018-12-24T08:54:35.546Z,32.95
2018-12-24T08:57:31.771Z,33.13
2018-12-24T09:00:27.592Z,35.92
2018-12-24T09:03:24.757Z,31.80
2018-12-24T09:06:20.727Z,34.35
2018-12-24T09:09:18.911Z,33.67
2018-12-24T09:12:35.207Z,33.13
2018-12-24T09:15:31.385Z,32.78
2018-12-24T09:18:27.658Z,34.65
2018-12-24T09:21:26.619Z,34.25
2018-12-24T09:24:25.874Z,36.00
2018-12-24T09:27:25.650Z,36.00
2018-12-24T09:30:52.194Z,36.17
2018-12-24T09:36:11.032Z,36.33
2018-12-24T09:38:29.238Z,33.08
2018-12-24T09:46:42.316Z,32.35
2018-12-24T09:49:05.798Z,31.42
2018-12-24T09:52:12.008Z,31.65
2018-12-24T09:55:39.606Z,30.32
2018-12-24T09:59:05.867Z,29.30
2018-12-24T10:02:10.615Z,29.30
2018-12-24T10:05:06.062Z,29.50
2018-12-24T10:08:02.959Z,28.25
2018-12-24T10:14:15.230Z,29.40
2018-12-24T10:17:14.181Z,30.45
2018-12-24T10:20:11.535Z,29.80
2018-12-24T10:23:11.879Z,30.88
2018-12-24T10:26:14.770Z,30.10
2018-12-24T10:29:11.082Z,33.45
2018-12-24T10:32:07.710Z,31.17
2018-12-24T10:35:03.564Z,32.70
2018-12-24T10:38:04.880Z,32.25
2018-12-24T10:41:20.310Z,32.33
2018-12-24T10:44:18.585Z,32.38
2018-12-24T10:47:20.458Z,31.20
2018-12-24T10:50:17.661Z,29.65
2018-12-24T10:57:16.826Z,29.67
2018-12-24T11:00:20.425Z,32.60
2018-12-24T11:03:20.750Z,32.93
2018-12-24T11:06:36.038Z,35.98
2018-12-24T11:09:35.156Z,32.60
2018-12-24T11:12:51.549Z,33.60
2018-12-24T11:16:00.983Z,33.35
2018-12-24T11:18:59.870Z,35.30
2018-12-24T11:22:26.082Z,36.30
2018-12-24T11:25:25.003Z,37.13
2018-12-24T11:28:25.124Z,36.20
2018-12-24T11:31:33.477Z,37.05
2018-12-24T11:34:31.966Z,36.03
2018-12-24T11:37:29.572Z,35.33
2018-12-24T11:40:35.899Z,35.60
2018-12-24T11:43:39.227Z,36.98
2018-12-24T11:46:37.595Z,37.70
2018-12-24T11:49:45.614Z,37.10
2018-12-24T11:53:01.114Z,38.38
2018-12-24T11:56:14.106Z,37.50
2018-12-24T11:59:26.557Z,38.58
2018-12-24T12:02:27.295Z,40.70
2018-12-24T12:05:40.636Z,41.10
2018-12-24T12:08:38.724Z,42.50
2018-12-24T12:11:37.022Z,40.88
2018-12-24T12:14:42.513Z,39.90
2018-12-24T12:17:49.237Z,39.65
2018-12-24T12:21:01.426Z,39.63
2018-12-24T12:24:20.780Z,41.45
2018-12-24T12:27:20.346Z,46.48
2018-12-24T12:30:17.040Z,45.75
2018-12-24T12:33:14.418Z,43.70
2018-12-24T12:36:11.964Z,42.55
2018-12-24T12:39:29.398Z,42.48
2018-12-24T12:42:33.035Z,41.25
2018-12-24T12:45:54.456Z,41.68
2018-12-24T12:48:52.744Z,43.98
2018-12-24T12:51:52.919Z,44.93
2018-12-24T12:54:49.665Z,47.45
2018-12-24T12:57:45.852Z,48.08
2018-12-24T13:00:42.137Z,48.00
2018-12-24T13:03:38.751Z,51.33
2018-12-24T13:06:48.651Z,51.08
2018-12-24T13:09:48.360Z,57.38
2018-12-24T13:13:00.855Z,56.48
2018-12-24T13:16:11.240Z,57.13
2018-12-24T13:19:08.711Z,55.78
2018-12-24T13:22:07.886Z,52.55
2018-12-24T13:25:04.392Z,53.98
2018-12-24T13:28:00.655Z,52.25
2018-12-24T13:30:57.079Z,50.48
2018-12-24T13:33:53.416Z,51.63
2018-12-24T13:36:50.453Z,52.58
2018-12-24T13:39:46.496Z,57.53
2018-12-24T13:42:52.334Z,67.08
2018-12-24T13:45:48.581Z,61.33
2018-12-24T13:48:45.633Z,64.17
2018-12-24T13:51:42.405Z,65.20
2018-12-24T13:54:39.128Z,67.27
2018-12-24T13:57:35.729Z,71.40
2018-12-24T14:00:35.063Z,68.47
2018-12-24T14:03:31.380Z,70.32
2018-12-24T14:06:31.941Z,79.07
2018-12-24T14:09:28.247Z,75.50
2018-12-24T14:12:24.245Z,76.37
2018-12-24T14:15:20.308Z,81.75
2018-12-24T14:18:17.544Z,81.00
2018-12-24T14:21:14.136Z,85.12
2018-12-24T14:24:10.958Z,86.90
2018-12-24T14:27:07.697Z,86.15
2018-12-24T14:30:04.999Z,85.85
2018-12-24T14:33:02.311Z,87.55
2018-12-24T14:35:59.058Z,89.90
2018-12-24T14:38:55.587Z,89.17
2018-12-24T14:41:52.136Z,102.07
2018-12-24T14:44:48.347Z,106.05
2018-12-24T14:47:44.971Z,114.85
2018-12-24T14:50:47.188Z,105.95
2018-12-24T14:53:37.882Z,106.80
2018-12-24T14:56:37.963Z,91.67
2018-12-24T14:59:30.958Z,88.58
2018-12-24T15:02:30.457Z,84.10
2018-12-24T15:05:27.912Z,77.70
2018-12-24T15:08:24.371Z,77.25
2018-12-24T15:11:21.407Z,72.75
2018-12-24T15:14:18.253Z,80.87
2018-12-24T15:17:14.733Z,74.90
2018-12-24T15:20:11.444Z,79.62
2018-12-24T15:23:07.868Z,81.42
2018-12-24T15:26:03.905Z,107.60
2018-12-24T15:29:01.405Z,139.85
2018-12-24T15:32:02.964Z,111.55
2018-12-24T15:35:01.206Z,118.40
2018-12-24T15:37:53.832Z,143.72
2018-12-24T15:40:50.688Z,167.53
2018-12-24T15:43:50.310Z,183.05
2018-12-24T15:46:47.149Z,174.12
2018-12-24T15:49:44.591Z,202.07
2018-12-24T15:52:41.149Z,210.75
2018-12-24T15:55:37.794Z,178.32
2018-12-24T15:58:36.489Z,222.48
2018-12-24T16:01:33.225Z,232.52
2018-12-24T16:04:30.180Z,235.97
2018-12-24T16:07:26.406Z,244.03
2018-12-24T16:10:22.801Z,248.72
2018-12-24T16:13:19.280Z,248.80
2018-12-24T16:16:15.713Z,245.85
2018-12-24T16:19:12.254Z,259.85
2018-12-24T16:22:08.440Z,237.30
2018-12-24T16:25:05.232Z,256.38
2018-12-24T16:28:01.861Z,252.72
2018-12-24T16:30:57.997Z,250.13
2018-12-24T16:33:54.491Z,247.45
2018-12-24T16:36:50.141Z,247.93
2018-12-24T16:39:46.303Z,250.75
2018-12-24T16:42:45.527Z,252.70
2018-12-24T16:45:42.619Z,257.12
2018-12-24T16:48:38.973Z,270.52
2018-12-24T16:51:38.135Z,269.68
2018-12-24T16:54:34.186Z,246.68
2018-12-24T16:57:31.047Z,205.05
2018-12-24T17:00:27.279Z,226.82
2018-12-24T17:03:23.510Z,261.15
2018-12-24T17:06:19.535Z,231.90
2018-12-24T17:09:16.372Z,231.07
2018-12-24T17:12:12.925Z,208.50
2018-12-24T17:15:10.074Z,180.18
2018-12-24T17:18:06.612Z,174.72
2018-12-24T17:21:03.153Z,161.05
2018-12-24T17:23:59.775Z,165.40
2018-12-24T17:26:56.533Z,158.82
2018-12-24T17:29:53.078Z,158.15
2018-12-24T17:32:49.115Z,148.45
2018-12-24T17:35:45.932Z,146.18
2018-12-24T17:38:42.385Z,145.28
2018-12-24T17:41:38.604Z,142.87
2018-12-24T17:44:34.748Z,144.10
2018-12-24T17:47:30.962Z,138.82
2018-12-24T17:50:27.215Z,139.03
2018-12-24T17:53:30.321Z,134.43
2018-12-24T17:56:27.034Z,134.12
2018-12-24T17:59:19.423Z,134.55
2018-12-24T18:02:16.334Z,130.78
2018-12-24T18:05:12.667Z,133.30
2018-12-24T18:08:09.721Z,134.43
2018-12-24T18:11:06.040Z,135.95
2018-12-24T18:14:03.001Z,133.67
2018-12-24T18:16:59.337Z,137.50
2018-12-24T18:19:56.184Z,137.80
2018-12-24T18:22:53.131Z,133.95
2018-12-24T18:25:50.180Z,129.23
2018-12-24T18:28:49.268Z,125.60
2018-12-24T18:31:46.537Z,124.27
2018-12-24T18:34:43.181Z,126.53
2018-12-24T18:37:39.923Z,132.72
2018-12-24T18:40:36.447Z,130.32
2018-12-24T18:43:33.000Z,126.85
2018-12-24T18:46:29.024Z,126.38
2018-12-24T18:49:25.573Z,126.62
2018-12-24T18:52:22.306Z,123.05
2018-12-24T18:55:20.235Z,127.35
2018-12-24T18:58:15.288Z,142.53
2018-12-24T19:01:11.583Z,133.05
2018-12-24T19:04:07.851Z,127.78
2018-12-24T19:07:04.592Z,129.07
2018-12-24T19:10:01.848Z,125.85
2018-12-24T19:12:58.986Z,125.15
2018-12-24T19:15:55.433Z,120.92
2018-12-24T19:18:53.135Z,122.65
2018-12-24T19:21:49.228Z,113.65
2018-12-24T19:24:45.419Z,114.42
2018-12-24T19:27:41.890Z,112.22
2018-12-24T19:30:38.238Z,111.80
2018-12-24T19:33:34.519Z,110.88
2018-12-24T19:36:31.310Z,111.60
2018-12-24T19:39:30.275Z,112.70
2018-12-24T19:42:26.110Z,110.70
2018-12-24T19:45:21.856Z,108.03
2018-12-24T19:48:18.745Z,104.95
2018-12-24T19:51:14.797Z,99.25
2018-12-24T19:54:10.668Z,98.82
2018-12-24T19:57:12.101Z,96.63
2018-12-24T20:00:12.333Z,98.58
2018-12-24T20:03:05.044Z,100.33
2018-12-24T20:06:01.920Z,97.85
2018-12-24T20:08:58.129Z,98.20
2018-12-24T20:11:54.689Z,100.20
2018-12-24T20:14:51.120Z,98.70
2018-12-24T20:17:47.975Z,96.50
2018-12-24T20:20:44.116Z,94.60
2018-12-24T20:23:41.055Z,94.15
2018-12-24T20:26:38.005Z,96.10
2018-12-24T20:29:34.090Z,95.45
2018-12-24T20:32:30.568Z,94.00
2018-12-24T20:35:26.992Z,93.93
2018-12-24T20:38:23.320Z,94.22
2018-12-24T20:41:19.953Z,93.50
2018-12-24T20:44:16.624Z,91.70
2018-12-24T20:47:14.381Z,92.30
2018-12-24T20:50:11.544Z,93.80
2018-12-24T20:53:08.181Z,88.97
2018-12-24T20:56:04.284Z,95.12
2018-12-24T20:59:00.273Z,96.82
2018-12-24T21:01:56.262Z,96.05
2018-12-24T21:04:51.987Z,95.38
2018-12-24T21:07:48.102Z,97.02
2018-12-24T21:10:44.614Z,98.27
2018-12-24T21:13:40.668Z,98.95
2018-12-24T21:16:36.585Z,98.67
2018-12-24T21:19:32.731Z,98.58
2018-12-24T21:22:29.072Z,99.07
2018-12-24T21:25:25.397Z,98.17
2018-12-24T21:28:21.932Z,101.75
2018-12-24T21:31:18.071Z,101.42
2018-12-24T21:34:14.199Z,94.30
2018-12-24T21:37:13.919Z,97.43
2018-12-24T21:40:15.100Z,93.00
2018-12-24T21:43:11.274Z,95.70
2018-12-24T21:46:14.025Z,96.80
2018-12-24T21:49:07.571Z,96.87
2018-12-24T21:52:03.341Z,97.13
2018-12-24T21:54:58.922Z,100.10
2018-12-24T21:57:55.384Z,97.97
2018-12-24T22:00:51.432Z,96.90
2018-12-24T22:03:48.300Z,100.17
2018-12-24T22:06:44.525Z,97.60
2018-12-24T22:09:41.578Z,99.33
2018-12-24T22:12:40.467Z,95.47
2018-12-24T22:15:36.567Z,98.27
2018-12-24T22:18:42.048Z,96.45
2018-12-24T22:21:38.972Z,86.65
2018-12-24T22:24:35.224Z,90.57
2018-12-24T22:27:31.455Z,91.20
2018-12-24T22:30:27.892Z,86.12
2018-12-24T22:33:24.727Z,90.70
2018-12-24T22:36:20.974Z,87.57
2018-12-24T22:39:17.507Z,87.40
2018-12-24T22:42:14.149Z,90.12
2018-12-24T22:45:10.984Z,91.75
2018-12-24T22:48:06.800Z,94.50
2018-12-24T22:51:04.892Z,96.80
2018-12-24T22:54:01.433Z,97.27
2018-12-24T22:56:59.690Z,98.53
2018-12-24T22:59:55.935Z,100.02
2018-12-24T23:02:52.071Z,102.40
2018-12-24T23:05:51.376Z,105.03
2018-12-24T23:08:47.673Z,110.37
2018-12-24T23:11:44.789Z,111.03
2018-12-24T23:14:41.403Z,117.97
2018-12-24T23:17:37.544Z,116.33
2018-12-24T23:20:33.423Z,121.17
2018-12-24T23:23:30.520Z,119.53
2018-12-24T23:26:26.941Z,120.53
2018-12-24T23:29:23.919Z,120.80
2018-12-24T23:32:20.325Z,121.57
2018-12-24T23:35:16.867Z,122.28
2018-12-24T23:38:13.395Z,121.23
2018-12-24T23:41:09.109Z,129.23
2018-12-24T23:44:09.332Z,132.78
2018-12-24T23:47:07.024Z,133.13
2018-12-24T23:50:03.758Z,136.00
2018-12-24T23:53:03.338Z,138.73
2018-12-24T23:56:00.115Z,139.43
2018-12-24T23:58:56.779Z,142.33
